Item Display Status Humidity-temperature Sensor

Elevation Above Sea Level: 3 m

 

Deployed Sensor

  • Serial Number: 20199373
  • NDBC Property Number: 41831
  • Start Date: 3/30/2023 (01:08:07 Z)
  • End Date: Currently Active
Relative Humidity [%]     6 entries per hour
Showing data from 5/30/2024 (05:00:00 Z) to 5/29/2024 (00:00:01 Z)
Previous Next [ Day | 3-Days | 7-Days ]
First Last
Prev [ Day | 3-Days | 7-Days ] Next
First Last

Start Time:     :
End Time:     :     
Time (in GMT) :00 :50 :40 :30 :20 :10
Previous Next [ Day | 3-Days | 7-Days ]
First Last
Prev [ Day | 3-Days | 7-Days ] Next
First Last


123 => good data
MM => data is determined as missing
-- => data not received/configured
Back to Top Back to Top
5/30/2024 05:00 to 4:10 90.52 90.99 90.04 89.72 90.30 90.18
5/30/2024 04:00 to 3:10 91.15 90.61 90.22 89.92 91.29 91.41
5/30/2024 03:00 to 2:10 91.79 91.77 91.89 91.25 92.45 92.39
5/30/2024 02:00 to 1:10 92.62 92.56 92.98 93.20 93.08 92.82
5/30/2024 01:00 to 0:10 92.70 92.43 92.09 90.95 90.55 90.40
5/30/2024 00:00 to 23:10 89.74 90.12 91.29 89.34 89.54 88.68
5/29/2024 23:00 to 22:10 89.58 88.84 90.34 89.48 89.18 89.98
5/29/2024 22:00 to 21:10 89.04 90.81 92.27 92.27 92.17 92.27
5/29/2024 21:00 to 20:10 92.39 91.89 92.07 91.95 92.09 91.53
5/29/2024 20:00 to 19:10 92.23 92.03 92.09 91.99 91.51 92.13
5/29/2024 19:00 to 18:10 91.63 91.21 90.77 90.18 90.77 91.41
5/29/2024 18:00 to 17:10 91.91 91.83 91.21 91.09 91.27 90.83
5/29/2024 17:00 to 16:10 91.25 91.31 91.05 91.13 90.59 90.89
5/29/2024 16:00 to 15:10 -- -- -- -- -- --
5/29/2024 15:00 to 14:10 90.34 90.97 92.13 91.27 92.62 91.65
5/29/2024 14:00 to 13:10 91.01 91.59 91.61 92.03 92.49 92.92
5/29/2024 13:00 to 12:10 93.04 93.28 93.22 93.48 93.66 92.96
5/29/2024 12:00 to 11:10 93.10 93.24 93.36 93.22 93.68 94.00
5/29/2024 11:00 to 10:10 93.80 93.52 93.46 93.56 93.20 93.38
5/29/2024 10:00 to 9:10 93.58 93.52 93.96 94.40 94.12 94.59
5/29/2024 09:00 to 8:10 94.71 95.39 96.13 95.95 95.13 93.66
5/29/2024 08:00 to 7:10 93.02 94.93 95.71 95.39 94.85 93.20
5/29/2024 07:00 to 6:10 93.14 93.24 92.70 92.31 92.56 92.68
5/29/2024 06:00 to 5:10 92.35 92.13 91.99 91.95 91.47 90.87
5/29/2024 05:00 to 4:10 90.89 91.01 91.07 90.79 90.73 90.59
5/29/2024 04:00 to 3:10 90.67 90.00 90.48 90.18 90.36 90.63
5/29/2024 03:00 to 2:10 89.68 90.38 89.96 89.94 90.52 90.22
5/29/2024 02:00 to 1:10 89.08 88.92 89.42 89.46 89.74 88.78
5/29/2024 01:00 to 0:10 88.31 88.82 87.55 88.25 88.35 89.10

 

 

 

Air Temperature [°C]     6 entries per hour
Showing data from 5/30/2024 (05:00:00 Z) to 5/29/2024 (00:00:01 Z)
Previous Next [ Day | 3-Days | 7-Days ]
First Last
Prev [ Day | 3-Days | 7-Days ] Next
First Last

Start Time:     :
End Time:     :     
Time (in GMT) :00 :50 :40 :30 :20 :10
Previous Next [ Day | 3-Days | 7-Days ]
First Last
Prev [ Day | 3-Days | 7-Days ] Next
First Last


123 => good data
MM => data is determined as missing
-- => data not received/configured
Back to Top Back to Top
5/30/2024 05:00 to 4:10 25.35 25.42 25.29 25.37 25.30 25.26
5/30/2024 04:00 to 3:10 25.27 25.34 25.34 25.36 25.37 25.26
5/30/2024 03:00 to 2:10 25.34 25.40 25.42 25.31 25.30 25.35
5/30/2024 02:00 to 1:10 25.38 25.44 25.46 25.41 25.51 25.52
5/30/2024 01:00 to 0:10 25.47 25.50 25.57 25.48 25.50 25.45
5/30/2024 00:00 to 23:10 25.66 25.56 25.41 25.69 25.57 25.64
5/29/2024 23:00 to 22:10 25.60 25.70 25.60 25.54 25.59 25.57
5/29/2024 22:00 to 21:10 25.62 25.46 25.43 25.42 25.35 25.37
5/29/2024 21:00 to 20:10 25.52 25.43 25.51 25.44 25.46 25.40
5/29/2024 20:00 to 19:10 25.36 25.42 25.44 25.39 25.41 25.44
5/29/2024 19:00 to 18:10 25.50 25.35 25.38 25.42 25.30 25.31
5/29/2024 18:00 to 17:10 25.39 25.35 25.39 25.37 25.47 25.38
5/29/2024 17:00 to 16:10 25.48 25.44 25.42 25.46 25.47 25.51
5/29/2024 16:00 to 15:10 -- -- -- -- -- --
5/29/2024 15:00 to 14:10 25.42 25.35 25.26 25.27 25.19 25.42
5/29/2024 14:00 to 13:10 25.29 25.27 25.12 25.11 24.95 24.97
5/29/2024 13:00 to 12:10 25.00 25.00 24.98 24.99 25.06 24.97
5/29/2024 12:00 to 11:10 25.00 25.03 25.03 24.94 24.98 24.93
5/29/2024 11:00 to 10:10 24.95 24.95 25.00 25.03 24.93 25.07
5/29/2024 10:00 to 9:10 25.11 24.98 25.01 25.06 24.99 25.16
5/29/2024 09:00 to 8:10 25.09 25.04 24.90 24.92 24.89 24.85
5/29/2024 08:00 to 7:10 24.56 24.23 24.38 24.83 25.11 25.19
5/29/2024 07:00 to 6:10 25.20 25.30 25.22 25.14 25.21 25.24
5/29/2024 06:00 to 5:10 25.24 25.28 25.18 25.15 25.22 25.31
5/29/2024 05:00 to 4:10 25.18 25.25 25.31 25.25 25.25 25.28
5/29/2024 04:00 to 3:10 25.36 25.13 25.32 25.23 25.21 25.39
5/29/2024 03:00 to 2:10 25.24 25.28 25.26 25.28 25.31 25.36
5/29/2024 02:00 to 1:10 25.37 25.28 25.36 25.38 25.36 25.44
5/29/2024 01:00 to 0:10 25.44 25.44 25.50 25.42 25.43 25.45